aviador You're here:

KPIA Decoded Metar

PEORIA in IL, USA
Report Time2017-06-25 19:54:00
UTC Time2017-06-25 20:38:51
Flight Rules vfr VFR
Wind280° at 13 Gusting to 25 kt
W.Decomp.*RWY 31: 11.1 kt HW 6.7 kt LCW
RWY 22: 6.7 kt HW 11.1 kt RCW
W.Rank280° ranks 9
Current wind is above 280° avg. (8.1)
Visibility9999 m
Phenomena:N/A
Clouds:Scattered 065 Hf
Expected CloudBase > 5,600 ft AGL from Temp-Dew spread
CeilingNone
Temp22°C (ISA +8)
Dew Point08°C (41% RH)
AAT16.9°C
QNH1021 hPa
Density Alt1,522 ft
Elevation673 ft
Report Wrong Elevation
Raw Report
KPIA 251954Z 28013G25KT 10SM SCT065 22/08 A3016 RMK AO2 SLP210
T02220078=

Extra information for KPIA:More info

Metar Taf Metar & Taf Last 4 Metars F.Rules Stats Wind Profile Meteogram Temp Stats Airport Information Weather charts Add Link Nearby VenuesMetar ALERT Operation Metar Decoded Social comments

AIRNAV info for KPIA